Weather History for KHRT - January, 2013

Change the Weather History Date:

Sunday, January 13, 2013

  Actual Average Record
Temperature  
Mean Temperature 70 °F -  
Max Temperature 73 °F 59 °F 73 °F (2000)
Min Temperature 66 °F 40 °F 21 °F (2011)
Cooling Degree Days 4    
Growing Degree Days 20 (Base 50)    
Moisture  
Dew Point 69 °F    
Average Humidity 100    
Maximum Humidity 100    
Minimum Humidity 100    
Precipitation  
Precipitation 0.00 in - - ()
Sea Level Pressure  
Sea Level Pressure 30.03 in    
Wind  
Wind Speed 10 mph (SE)    
Max Wind Speed 17 mph    
Max Gust Speed 25 mph    
Visibility 7 miles    
Events Fog , Rain    
Averages and records for this station are not official NWS values.
T = Trace of Precipitation, MM = Missing Value Source: NWS Daily Summary

Daily Weather History Graph

Daily Weather History Graph

Search for Another Location

Airport or City:

Trip Planner

Search our weather history database for the weather conditions in past years. The results will help you decide how hot, cold, wet, or windy it might be!

Date:

Astronomy

Jan. 13, 2013 Rise Set
Actual Time 6:44 AM CST 5:06 PM CST
Civil Twilight 6:18 AM CST 5:32 PM CST
Nautical Twilight 5:48 AM CST 6:02 PM CST
Astronomical Twilight 5:19 AM CST 6:31 PM CST
Moon 7:54 AM CST (1/13) 7:31 PM CST (1/13)
Length of Visible Light 11h 14m
Length of Day
10h 22m
Waxing Crescent, 5% of the Moon is Illuminated
Jan 13
Waxing Crescent
Jan 18
First Quarter
Jan 26
Full
Feb 3
Last Quarter
Feb 10
New

Hourly Weather History & Observations

Time (CST) Temp. Dew Point Humidity Pressure Visibility Wind Dir Wind Speed Gust Speed Precip Events Conditions
12:13 AM 68.0 °F 68.0 °F 100% 30.02 in 8.0 mi SSE 10.4 mph - N/A   Mostly Cloudy
12:55 AM 68.0 °F 68.0 °F 100% 30.03 in 10.0 mi SSE 8.1 mph - N/A   Overcast
1:35 AM 68.0 °F 68.0 °F 100% 30.02 in 10.0 mi SSE 10.4 mph - N/A   Overcast
1:47 AM 68.0 °F 68.0 °F 100% 30.02 in 10.0 mi SSE 10.4 mph - N/A   Scattered Clouds
1:55 AM 68.4 °F 68.4 °F 100% 30.02 in 10.0 mi SSE 10.4 mph - N/A   Scattered Clouds
2:55 AM 68.0 °F 68.0 °F 100% 29.99 in 10.0 mi SSE 10.4 mph - N/A   Clear
3:55 AM 67.6 °F 67.6 °F 100% 29.99 in 8.0 mi SE 10.4 mph - N/A   Clear
4:33 AM 68.0 °F 68.0 °F 100% 29.99 in 8.0 mi SSE 8.1 mph - N/A   Partly Cloudy
4:55 AM 66.9 °F 66.9 °F 100% 30.00 in 7.0 mi SE 6.9 mph - N/A   Clear
5:35 AM 66.2 °F 66.2 °F 100% 30.01 in 5.0 mi SE 8.1 mph - N/A   Partly Cloudy
5:49 AM 68.0 °F 68.0 °F 100% 30.02 in 4.0 mi SE 6.9 mph - N/A   Mostly Cloudy
5:53 AM 68.0 °F 68.0 °F 100% 30.02 in 4.0 mi SE 8.1 mph - N/A   Mostly Cloudy
5:55 AM 67.3 °F 67.3 °F 100% 30.02 in 4.0 mi SE 8.1 mph - N/A   Mostly Cloudy
5:59 AM 68.0 °F 68.0 °F 100% 30.02 in 3.0 mi SE 6.9 mph - N/A   Mostly Cloudy
6:00 AM 68.0 °F 68.0 °F 100% 30.02 in 2.5 mi SE 8.1 mph - N/A   Mostly Cloudy
6:04 AM 68.0 °F 68.0 °F 100% 30.02 in 1.8 mi SE 8.1 mph - N/A   Overcast
6:05 AM 68.0 °F 68.0 °F 100% 30.02 in 1.5 mi SE 8.1 mph - N/A   Overcast
6:06 AM 68.0 °F 68.0 °F 100% 30.03 in 1.2 mi SE 9.2 mph - N/A   Overcast
6:07 AM 68.0 °F 68.0 °F 100% 30.03 in 1.0 mi SE 9.2 mph - N/A   Mist
6:10 AM 68.0 °F 68.0 °F 100% 30.03 in 0.8 mi SE 8.1 mph - N/A   Mist
6:13 AM 68.0 °F 68.0 °F 100% 30.03 in 0.8 mi SE 9.2 mph - N/A   Mist
6:15 AM 68.0 °F 68.0 °F 100% 30.03 in 0.5 mi SE 9.2 mph - N/A Fog Fog
6:19 AM 68.0 °F 68.0 °F 100% 30.03 in 0.5 mi SE 8.1 mph - N/A Fog Light Drizzle
6:20 AM 68.0 °F 68.0 °F 100% 30.03 in 0.5 mi SE 9.2 mph - N/A Fog Light Drizzle
6:38 AM 66.2 °F 66.2 °F 100% 30.03 in 0.2 mi SE 8.1 mph - N/A Fog Light Drizzle
6:46 AM 68.0 °F 68.0 °F 100% 30.02 in 0.2 mi SE 9.2 mph - N/A Fog Light Drizzle
6:47 AM 68.0 °F 68.0 °F 100% 30.02 in 0.2 mi SE 10.4 mph - N/A Fog Fog
6:53 AM 68.0 °F 68.0 °F 100% 30.03 in 0.5 mi SSE 8.1 mph - N/A Fog Fog
6:54 AM 68.0 °F 68.0 °F 100% 30.03 in 0.5 mi SSE 8.1 mph - N/A Fog Fog
6:55 AM 67.6 °F 67.6 °F 100% 30.03 in 0.5 mi SSE 9.2 mph - 0.00 in Fog Fog
6:58 AM 68.0 °F 68.0 °F 100% 30.03 in 0.5 mi SSE 9.2 mph - N/A Fog Fog
7:01 AM 68.0 °F 68.0 °F 100% 30.03 in 0.8 mi SSE 10.4 mph - N/A   Mist
7:03 AM 68.0 °F 68.0 °F 100% 30.03 in 1.0 mi SE 11.5 mph - N/A   Mist
7:06 AM 68.0 °F 68.0 °F 100% 30.03 in 1.2 mi SE 9.2 mph - N/A   Overcast
7:08 AM 68.0 °F 68.0 °F 100% 30.03 in 1.5 mi SE 10.4 mph - N/A   Overcast
7:09 AM 68.0 °F 68.0 °F 100% 30.03 in 1.8 mi SE 9.2 mph - N/A   Overcast
7:10 AM 68.0 °F 68.0 °F 100% 30.03 in 2.0 mi SE 10.4 mph - N/A   Overcast
7:13 AM 68.0 °F 68.0 °F 100% 30.04 in 3.0 mi SE 10.4 mph - N/A   Overcast
7:55 AM 68.5 °F 68.5 °F 100% 30.04 in 8.0 mi SE 13.8 mph - N/A   Overcast
8:06 AM 68.0 °F 68.0 °F 100% 30.04 in 10.0 mi SE 12.7 mph - N/A   Overcast
8:55 AM 69.4 °F 69.4 °F 100% 30.06 in 10.0 mi SE 13.8 mph - N/A   Overcast
9:05 AM 69.8 °F 69.8 °F 100% 30.05 in 10.0 mi SE 15.0 mph - N/A   Overcast
9:23 AM 69.8 °F 69.8 °F 100% 30.05 in 10.0 mi SE 13.8 mph - N/A   Overcast
9:55 AM 70.5 °F 70.5 °F 100% 30.04 in 10.0 mi SE 15.0 mph 21.9 mph N/A   Mostly Cloudy
10:08 AM 71.6 °F 71.6 °F 100% 30.04 in 10.0 mi SSE 15.0 mph 21.9 mph N/A   Scattered Clouds
10:55 AM 72.0 °F 72.0 °F 100% 30.03 in 10.0 mi SSE 16.1 mph 20.7 mph N/A   Scattered Clouds
11:46 AM 73.4 °F 73.4 °F 100% 30.02 in 10.0 mi SE 17.3 mph 25.3 mph N/A   Partly Cloudy
11:55 AM 72.5 °F 72.5 °F 100% 30.03 in 10.0 mi SSE 15.0 mph - N/A   Partly Cloudy
12:55 PM 72.3 °F 72.3 °F 100% 30.02 in 10.0 mi SE 12.7 mph 19.6 mph N/A   Scattered Clouds
1:28 PM 73.4 °F 73.4 °F 100% 30.01 in 10.0 mi SE 13.8 mph - N/A   Mostly Cloudy
1:55 PM 71.6 °F 71.6 °F 100% 30.02 in 10.0 mi SSE 9.2 mph - N/A   Overcast
2:06 PM 71.6 °F 71.6 °F 100% 30.02 in 10.0 mi SSE 12.7 mph - N/A   Scattered Clouds
2:33 PM 71.6 °F 71.6 °F 100% 30.02 in 10.0 mi SE 11.5 mph - N/A   Mostly Cloudy
2:55 PM 71.4 °F 71.4 °F 100% 30.02 in 10.0 mi SE 10.4 mph - N/A   Overcast
3:01 PM 71.6 °F 71.6 °F 100% 30.02 in 10.0 mi SE 8.1 mph - N/A   Overcast
3:12 PM 71.6 °F 71.6 °F 100% 30.02 in 10.0 mi SE 8.1 mph - N/A   Overcast
3:22 PM 71.6 °F 71.6 °F 100% 30.02 in 10.0 mi SE 9.2 mph - N/A   Overcast
3:29 PM 71.6 °F 71.6 °F 100% 30.02 in 10.0 mi SE 9.2 mph - N/A   Overcast
3:51 PM 69.8 °F 69.8 °F 100% 30.02 in 10.0 mi SE 10.4 mph - N/A   Mostly Cloudy
3:55 PM 70.5 °F 70.5 °F 100% 30.02 in 10.0 mi SE 12.7 mph - N/A   Mostly Cloudy
3:56 PM 69.8 °F 69.8 °F 100% 30.02 in 10.0 mi SE 11.5 mph - N/A   Scattered Clouds
4:06 PM 69.8 °F 69.8 °F 100% 30.02 in 10.0 mi SE 8.1 mph - N/A   Partly Cloudy
4:29 PM 69.8 °F 69.8 °F 100% 30.03 in 10.0 mi SE 8.1 mph - N/A   Mostly Cloudy
4:32 PM 69.8 °F 69.8 °F 100% 30.03 in 10.0 mi SE 9.2 mph - N/A   Mostly Cloudy
4:42 PM 69.8 °F 69.8 °F 100% 30.03 in 10.0 mi SE 9.2 mph - N/A Rain Light Rain
4:55 PM 69.8 °F 69.8 °F 100% 30.03 in 10.0 mi SE 8.1 mph - 0.00 in Rain Light Rain
5:01 PM 69.8 °F 69.8 °F 100% 30.03 in 10.0 mi SE 9.2 mph - N/A   Mostly Cloudy
5:22 PM 69.8 °F 69.8 °F 100% 30.04 in 10.0 mi SE 8.1 mph - N/A   Overcast
5:40 PM 69.8 °F 69.8 °F 100% 30.04 in 10.0 mi SSE 8.1 mph - N/A   Overcast
5:55 PM 69.1 °F 69.1 °F 100% 30.04 in 10.0 mi SE 8.1 mph - 0.00 in   Overcast
6:07 PM 69.8 °F 69.8 °F 100% 30.04 in 10.0 mi SE 6.9 mph - N/A   Overcast
6:09 PM 69.8 °F 69.8 °F 100% 30.04 in 10.0 mi SE 6.9 mph - N/A   Overcast
6:55 PM 69.6 °F 69.6 °F 100% 30.05 in 10.0 mi SSE 9.2 mph - N/A   Overcast
7:01 PM 69.8 °F 69.8 °F 100% 30.05 in 10.0 mi SSE 9.2 mph - N/A   Overcast
7:55 PM 69.6 °F 69.6 °F 100% 30.05 in 10.0 mi South 5.8 mph - N/A   Overcast
8:55 PM 69.8 °F 69.8 °F 100% 30.04 in 10.0 mi SSE 12.7 mph - N/A   Overcast
9:55 PM 69.6 °F 69.6 °F 100% 30.06 in 9.0 mi SSE 9.2 mph - N/A   Overcast
10:55 PM 69.8 °F 69.8 °F 100% 30.05 in 9.0 mi SSE 10.4 mph - N/A   Overcast
11:55 PM 69.8 °F 69.8 °F 100% 30.04 in 8.0 mi SE 10.4 mph - N/A   Overcast